sensor_id;sensor_type;location;lat;lon;timestamp;pressure;altitude;pressure_sealevel;temperature;humidity
2761;BME280;15420;48.636;9.798;2022-11-20T00:00:31;96099.13;;;8.98;95.01
2761;BME280;15420;48.636;9.798;2022-11-20T00:02:57;96101.66;;;8.96;94.84
2761;BME280;15420;48.636;9.798;2022-11-20T00:05:23;96111.06;;;8.94;95.24
2761;BME280;15420;48.636;9.798;2022-11-20T00:07:50;96104.16;;;8.92;94.50
2761;BME280;15420;48.636;9.798;2022-11-20T00:10:19;96111.00;;;8.91;94.58
2761;BME280;15420;48.636;9.798;2022-11-20T00:12:47;96103.28;;;8.91;93.65
2761;BME280;15420;48.636;9.798;2022-11-20T00:15:13;96098.97;;;8.89;93.27
2761;BME280;15420;48.636;9.798;2022-11-20T00:17:39;96101.53;;;8.87;93.09
2761;BME280;15420;48.636;9.798;2022-11-20T00:20:06;96098.06;;;8.85;92.99
2761;BME280;15420;48.636;9.798;2022-11-20T00:22:35;96102.28;;;8.81;93.69
2761;BME280;15420;48.636;9.798;2022-11-20T00:25:01;96099.69;;;8.80;93.36
2761;BME280;15420;48.636;9.798;2022-11-20T00:27:27;96105.66;;;8.79;94.16
2761;BME280;15420;48.636;9.798;2022-11-20T00:29:56;96106.44;;;8.75;93.91
2761;BME280;15420;48.636;9.798;2022-11-20T00:32:22;96109.81;;;8.71;94.33
2761;BME280;15420;48.636;9.798;2022-11-20T00:34:48;96109.81;;;8.71;93.11
2761;BME280;15420;48.636;9.798;2022-11-20T00:37:14;96117.44;;;8.66;94.39
2761;BME280;15420;48.636;9.798;2022-11-20T00:39:40;96114.84;;;8.65;94.52
2761;BME280;15420;48.636;9.798;2022-11-20T00:42:09;96108.78;;;8.61;94.56
2761;BME280;15420;48.636;9.798;2022-11-20T00:44:35;96113.91;;;8.60;93.85
2761;BME280;15420;48.636;9.798;2022-11-20T00:47:03;96113.00;;;8.58;94.29
2761;BME280;15420;48.636;9.798;2022-11-20T00:49:34;96120.66;;;8.55;93.76
2761;BME280;15420;48.636;9.798;2022-11-20T00:52:00;96118.00;;;8.50;95.32
2761;BME280;15420;48.636;9.798;2022-11-20T00:54:28;96117.97;;;8.48;94.46
2761;BME280;15420;48.636;9.798;2022-11-20T00:56:55;96114.47;;;8.45;95.44
2761;BME280;15420;48.636;9.798;2022-11-20T00:59:21;96121.28;;;8.43;95.12
2761;BME280;15420;48.636;9.798;2022-11-20T01:01:49;96126.41;;;8.41;94.15
2761;BME280;15420;48.636;9.798;2022-11-20T01:04:15;96122.91;;;8.38;94.93
2761;BME280;15420;48.636;9.798;2022-11-20T01:06:41;96131.44;;;8.37;94.20
2761;BME280;15420;48.636;9.798;2022-11-20T01:09:13;96123.69;;;8.34;93.59
2761;BME280;15420;48.636;9.798;2022-11-20T01:11:44;96130.53;;;8.33;94.79
2761;BME280;15420;48.636;9.798;2022-11-20T01:14:14;96131.34;;;8.31;93.94
2761;BME280;15420;48.636;9.798;2022-11-20T01:16:44;96135.56;;;8.29;93.89
2761;BME280;15420;48.636;9.798;2022-11-20T01:19:12;96133.81;;;8.26;95.06
2761;BME280;15420;48.636;9.798;2022-11-20T01:21:41;96132.06;;;8.25;94.72
2761;BME280;15420;48.636;9.798;2022-11-20T01:24:12;96141.47;;;8.25;94.86
2761;BME280;15420;48.636;9.798;2022-11-20T01:26:41;96130.28;;;8.21;93.37
2761;BME280;15420;48.636;9.798;2022-11-20T01:29:17;96137.13;;;8.20;94.12
2761;BME280;15420;48.636;9.798;2022-11-20T01:31:43;96131.13;;;8.20;93.54
2761;BME280;15420;48.636;9.798;2022-11-20T01:34:13;96136.22;;;8.18;93.96
2761;BME280;15420;48.636;9.798;2022-11-20T01:36:40;96136.19;;;8.17;93.53
2761;BME280;15420;48.636;9.798;2022-11-20T01:39:11;96139.63;;;8.17;92.76
2761;BME280;15420;48.636;9.798;2022-11-20T01:41:41;96149.00;;;8.15;92.46
2761;BME280;15420;48.636;9.798;2022-11-20T01:47:17;96146.31;;;8.09;93.11
2761;BME280;15420;48.636;9.798;2022-11-20T01:50:17;96141.97;;;8.07;93.28
2761;BME280;15420;48.636;9.798;2022-11-20T01:52:49;96140.22;;;8.04;93.66
2761;BME280;15420;48.636;9.798;2022-11-20T01:55:23;96138.53;;;8.05;93.28
2761;BME280;15420;48.636;9.798;2022-11-20T01:57:50;96136.66;;;7.98;93.84
2761;BME280;15420;48.636;9.798;2022-11-20T02:00:20;96140.06;;;7.97;93.17
2761;BME280;15420;48.636;9.798;2022-11-20T02:02:53;96136.56;;;7.93;93.13
2761;BME280;15420;48.636;9.798;2022-11-20T02:08:11;96142.47;;;7.89;93.70
2761;BME280;15420;48.636;9.798;2022-11-20T02:10:38;96142.44;;;7.87;93.62
2761;BME280;15420;48.636;9.798;2022-11-20T02:13:04;96145.03;;;7.89;93.15
2761;BME280;15420;48.636;9.798;2022-11-20T02:15:50;96138.19;;;7.88;93.94
2761;BME280;15420;48.636;9.798;2022-11-20T02:18:18;96139.88;;;7.87;93.36
2761;BME280;15420;48.636;9.798;2022-11-20T02:20:50;96136.44;;;7.87;92.85
2761;BME280;15420;48.636;9.798;2022-11-20T02:23:28;96139.88;;;7.87;92.26
2761;BME280;15420;48.636;9.798;2022-11-20T02:26:01;96140.72;;;7.86;91.82
2761;BME280;15420;48.636;9.798;2022-11-20T02:28:29;96146.69;;;7.87;92.70
2761;BME280;15420;48.636;9.798;2022-11-20T02:30:57;96143.25;;;7.85;91.90
2761;BME280;15420;48.636;9.798;2022-11-20T02:33:23;96142.38;;;7.84;92.58
2761;BME280;15420;48.636;9.798;2022-11-20T02:35:54;96140.66;;;7.83;92.70
2761;BME280;15420;48.636;9.798;2022-11-20T02:38:20;96144.03;;;7.82;92.83
2761;BME280;15420;48.636;9.798;2022-11-20T02:40:46;96141.44;;;7.81;92.43
2761;BME280;15420;48.636;9.798;2022-11-20T02:43:13;96141.41;;;7.79;93.15
2761;BME280;15420;48.636;9.798;2022-11-20T02:45:41;96137.94;;;7.77;93.07
2761;BME280;15420;48.636;9.798;2022-11-20T02:48:09;96133.63;;;7.75;92.98
2761;BME280;15420;48.636;9.798;2022-11-20T02:50:40;96135.25;;;7.71;93.02
2761;BME280;15420;48.636;9.798;2022-11-20T02:53:06;96134.34;;;7.69;93.89
2761;BME280;15420;48.636;9.798;2022-11-20T02:55:37;96136.03;;;7.67;93.42
2761;BME280;15420;48.636;9.798;2022-11-20T02:58:06;96133.41;;;7.64;94.02
2761;BME280;15420;48.636;9.798;2022-11-20T03:00:32;96129.88;;;7.59;94.04
2761;BME280;15420;48.636;9.798;2022-11-20T03:03:01;96137.50;;;7.56;93.94
2761;BME280;15420;48.636;9.798;2022-11-20T03:05:30;96135.66;;;7.50;94.57
2761;BME280;15420;48.636;9.798;2022-11-20T03:07:56;96137.25;;;7.45;94.03
2761;BME280;15420;48.636;9.798;2022-11-20T03:10:22;96133.72;;;7.40;94.55
2761;BME280;15420;48.636;9.798;2022-11-20T03:12:53;96140.44;;;7.35;94.75
2761;BME280;15420;48.636;9.798;2022-11-20T03:15:22;96146.28;;;7.30;94.76
2761;BME280;15420;48.636;9.798;2022-11-20T03:17:54;96139.41;;;7.26;94.79
2761;BME280;15420;48.636;9.798;2022-11-20T03:20:23;96142.66;;;7.18;95.54
2761;BME280;15420;48.636;9.798;2022-11-20T03:22:54;96133.19;;;7.16;95.22
2761;BME280;15420;48.636;9.798;2022-11-20T03:25:21;96135.69;;;7.13;95.53
2761;BME280;15420;48.636;9.798;2022-11-20T03:27:47;96133.03;;;7.10;95.95
2761;BME280;15420;48.636;9.798;2022-11-20T03:30:15;96140.69;;;7.08;96.22
2761;BME280;15420;48.636;9.798;2022-11-20T03:32:41;96138.88;;;7.04;96.88
2761;BME280;15420;48.636;9.798;2022-11-20T03:35:08;96133.78;;;7.04;96.72
2761;BME280;15420;48.636;9.798;2022-11-20T03:37:34;96133.69;;;7.01;97.09
2761;BME280;15420;48.636;9.798;2022-11-20T03:40:03;96140.50;;;7.01;97.17
2761;BME280;15420;48.636;9.798;2022-11-20T03:42:31;96135.31;;;6.98;97.23
2761;BME280;15420;48.636;9.798;2022-11-20T03:45:19;96141.25;;;6.97;97.08
2761;BME280;15420;48.636;9.798;2022-11-20T03:47:50;96137.84;;;6.96;97.57
2761;BME280;15420;48.636;9.798;2022-11-20T03:50:16;96143.81;;;6.97;97.03
2761;BME280;15420;48.636;9.798;2022-11-20T03:52:44;96137.00;;;6.97;97.52
2761;BME280;15420;48.636;9.798;2022-11-20T03:55:10;96149.03;;;7.00;97.92
2761;BME280;15420;48.636;9.798;2022-11-20T03:57:39;96147.38;;;7.02;97.85
2761;BME280;15420;48.636;9.798;2022-11-20T04:00:08;96144.84;;;7.03;98.45
2761;BME280;15420;48.636;9.798;2022-11-20T04:02:37;96141.44;;;7.04;98.40
2761;BME280;15420;48.636;9.798;2022-11-20T04:05:03;96147.56;;;7.09;99.34
2761;BME280;15420;48.636;9.798;2022-11-20T04:07:36;96146.75;;;7.12;99.22
2761;BME280;15420;48.636;9.798;2022-11-20T04:10:03;96147.66;;;7.14;99.25
2761;BME280;15420;48.636;9.798;2022-11-20T04:12:34;96148.53;;;7.14;99.46
2761;BME280;15420;48.636;9.798;2022-11-20T04:15:03;96151.16;;;7.17;99.25
2761;BME280;15420;48.636;9.798;2022-11-20T04:17:29;96144.38;;;7.19;99.29
2761;BME280;15420;48.636;9.798;2022-11-20T04:19:57;96151.25;;;7.22;99.55
2761;BME280;15420;48.636;9.798;2022-11-20T04:22:23;96150.47;;;7.25;99.89
2761;BME280;15420;48.636;9.798;2022-11-20T04:24:49;96139.41;;;7.26;99.71
2761;BME280;15420;48.636;9.798;2022-11-20T04:27:16;96132.56;;;7.26;100.00
2761;BME280;15420;48.636;9.798;2022-11-20T04:29:42;96129.19;;;7.29;100.00
2761;BME280;15420;48.636;9.798;2022-11-20T04:32:08;96130.03;;;7.29;100.00
2761;BME280;15420;48.636;9.798;2022-11-20T04:34:34;96114.72;;;7.31;100.00
2761;BME280;15420;48.636;9.798;2022-11-20T04:37:01;96113.03;;;7.33;100.00
2761;BME280;15420;48.636;9.798;2022-11-20T04:39:29;96113.88;;;7.32;100.00
2761;BME280;15420;48.636;9.798;2022-11-20T04:41:55;96123.25;;;7.31;100.00
2761;BME280;15420;48.636;9.798;2022-11-20T04:44:40;96126.63;;;7.29;100.00
2761;BME280;15420;48.636;9.798;2022-11-20T04:47:08;96119.81;;;7.29;100.00
2761;BME280;15420;48.636;9.798;2022-11-20T04:49:34;96119.81;;;7.29;100.00
2761;BME280;15420;48.636;9.798;2022-11-20T04:52:02;96126.69;;;7.32;100.00
2761;BME280;15420;48.636;9.798;2022-11-20T04:54:31;96111.31;;;7.32;100.00
2761;BME280;15420;48.636;9.798;2022-11-20T04:56:59;96128.47;;;7.34;100.00
2761;BME280;15420;48.636;9.798;2022-11-20T04:59:25;96121.63;;;7.35;100.00
2761;BME280;15420;48.636;9.798;2022-11-20T05:01:54;96116.53;;;7.36;100.00
2761;BME280;15420;48.636;9.798;2022-11-20T05:04:22;96113.16;;;7.37;100.00
2761;BME280;15420;48.636;9.798;2022-11-20T05:06:50;96120.06;;;7.41;100.00
2761;BME280;15420;48.636;9.798;2022-11-20T05:09:16;96115.88;;;7.45;100.00
2761;BME280;15420;48.636;9.798;2022-11-20T05:11:42;96126.13;;;7.45;100.00
2761;BME280;15420;48.636;9.798;2022-11-20T05:14:10;96122.75;;;7.46;100.00
2761;BME280;15420;48.636;9.798;2022-11-20T05:16:36;96126.19;;;7.48;100.00
2761;BME280;15420;48.636;9.798;2022-11-20T05:19:02;96124.53;;;7.50;100.00
2761;BME280;15420;48.636;9.798;2022-11-20T05:21:30;96116.03;;;7.51;100.00
2761;BME280;15420;48.636;9.798;2022-11-20T05:23:58;96112.56;;;7.49;100.00
2761;BME280;15420;48.636;9.798;2022-11-20T05:26:26;96115.97;;;7.49;100.00
2761;BME280;15420;48.636;9.798;2022-11-20T05:28:54;96111.69;;;7.48;100.00
2761;BME280;15420;48.636;9.798;2022-11-20T05:31:24;96115.94;;;7.48;100.00
2761;BME280;15420;48.636;9.798;2022-11-20T05:33:55;96117.66;;;7.47;100.00
2761;BME280;15420;48.636;9.798;2022-11-20T05:36:22;96120.22;;;7.47;100.00
2761;BME280;15420;48.636;9.798;2022-11-20T05:38:48;96113.38;;;7.48;100.00
2761;BME280;15420;48.636;9.798;2022-11-20T05:41:17;96115.09;;;7.47;100.00
2761;BME280;15420;48.636;9.798;2022-11-20T05:43:45;96109.09;;;7.47;100.00
2761;BME280;15420;48.636;9.798;2022-11-20T05:46:16;96112.56;;;7.49;100.00
2761;BME280;15420;48.636;9.798;2022-11-20T05:48:43;96115.16;;;7.50;100.00
2761;BME280;15420;48.636;9.798;2022-11-20T05:51:14;96110.88;;;7.51;100.00
2761;BME280;15420;48.636;9.798;2022-11-20T05:53:41;96106.63;;;7.51;100.00
2761;BME280;15420;48.636;9.798;2022-11-20T05:56:12;96114.34;;;7.53;100.00
2761;BME280;15420;48.636;9.798;2022-11-20T05:58:39;96116.91;;;7.53;100.00
2761;BME280;15420;48.636;9.798;2022-11-20T06:01:18;96111.03;;;7.57;100.00
2761;BME280;15420;48.636;9.798;2022-11-20T06:03:45;96114.41;;;7.56;100.00
2761;BME280;15420;48.636;9.798;2022-11-20T06:06:17;96124.72;;;7.58;100.00
2761;BME280;15420;48.636;9.798;2022-11-20T06:08:44;96121.34;;;7.60;100.00
2761;BME280;15420;48.636;9.798;2022-11-20T06:11:16;96123.94;;;7.62;100.00
2761;BME280;15420;48.636;9.798;2022-11-20T06:13:43;96118.81;;;7.62;100.00
2761;BME280;15420;48.636;9.798;2022-11-20T06:16:11;96122.25;;;7.62;100.00
2761;BME280;15420;48.636;9.798;2022-11-20T06:18:39;96115.44;;;7.64;100.00
2761;BME280;15420;48.636;9.798;2022-11-20T06:23:34;96116.34;;;7.66;100.00
2761;BME280;15420;48.636;9.798;2022-11-20T06:26:08;96123.25;;;7.69;100.00
2761;BME280;15420;48.636;9.798;2022-11-20T06:28:37;96120.75;;;7.72;100.00
2761;BME280;15420;48.636;9.798;2022-11-20T06:31:07;96127.59;;;7.73;100.00
2761;BME280;15420;48.636;9.798;2022-11-20T06:33:33;96125.94;;;7.75;100.00
2761;BME280;15420;48.636;9.798;2022-11-20T06:36:03;96124.25;;;7.77;100.00
2761;BME280;15420;48.636;9.798;2022-11-20T06:38:32;96126.88;;;7.80;100.00
2761;BME280;15420;48.636;9.798;2022-11-20T06:40:58;96126.06;;;7.81;100.00
2761;BME280;15420;48.636;9.798;2022-11-20T06:43:24;96133.78;;;7.82;100.00
2761;BME280;15420;48.636;9.798;2022-11-20T06:45:59;96133.84;;;7.85;100.00
2761;BME280;15420;48.636;9.798;2022-11-20T06:48:28;96133.88;;;7.87;100.00
2761;BME280;15420;48.636;9.798;2022-11-20T06:50:55;96129.63;;;7.87;100.00
2761;BME280;15420;48.636;9.798;2022-11-20T06:53:22;96133.09;;;7.91;100.00
2761;BME280;15420;48.636;9.798;2022-11-20T06:55:52;96133.13;;;7.93;100.00
2761;BME280;15420;48.636;9.798;2022-11-20T06:58:18;96135.75;;;7.96;100.00
2761;BME280;15420;48.636;9.798;2022-11-20T07:00:47;96131.53;;;7.98;100.00
2761;BME280;15420;48.636;9.798;2022-11-20T07:03:13;96135.00;;;8.00;100.00
2761;BME280;15420;48.636;9.798;2022-11-20T07:05:39;96141.88;;;8.02;99.78
2761;BME280;15420;48.636;9.798;2022-11-20T07:08:06;96142.81;;;8.06;98.56
2761;BME280;15420;48.636;9.798;2022-11-20T07:10:35;96145.44;;;8.09;97.54
2761;BME280;15420;48.636;9.798;2022-11-20T07:13:02;96148.94;;;8.12;97.00
2761;BME280;15420;48.636;9.798;2022-11-20T07:15:28;96147.28;;;8.16;96.74
2761;BME280;15420;48.636;9.798;2022-11-20T07:17:54;96149.84;;;8.16;95.86
2761;BME280;15420;48.636;9.798;2022-11-20T07:20:25;96145.66;;;8.19;96.16
2761;BME280;15420;48.636;9.798;2022-11-20T07:22:55;96151.75;;;8.25;95.38
2761;BME280;15420;48.636;9.798;2022-11-20T07:25:22;96154.34;;;8.26;95.39
2761;BME280;15420;48.636;9.798;2022-11-20T07:27:49;96155.28;;;8.31;94.51
2761;BME280;15420;48.636;9.798;2022-11-20T07:30:16;96157.00;;;8.32;94.17
2761;BME280;15420;48.636;9.798;2022-11-20T07:32:51;96145.13;;;8.36;94.04
2761;BME280;15420;48.636;9.798;2022-11-20T07:35:18;96159.72;;;8.38;94.92
2761;BME280;15420;48.636;9.798;2022-11-20T07:37:44;96153.78;;;8.42;94.73
2761;BME280;15420;48.636;9.798;2022-11-20T07:40:15;96159.00;;;8.45;93.75
2761;BME280;15420;48.636;9.798;2022-11-20T07:42:54;96152.22;;;8.49;94.33
2761;BME280;15420;48.636;9.798;2022-11-20T07:45:21;96154.81;;;8.50;93.71
2761;BME280;15420;48.636;9.798;2022-11-20T07:47:48;96152.25;;;8.52;94.41
2761;BME280;15420;48.636;9.798;2022-11-20T07:50:15;96157.47;;;8.55;93.40
2761;BME280;15420;48.636;9.798;2022-11-20T07:52:44;96154.91;;;8.57;93.71
2761;BME280;15420;48.636;9.798;2022-11-20T07:55:11;96162.69;;;8.60;92.72
2761;BME280;15420;48.636;9.798;2022-11-20T07:57:37;96150.72;;;8.62;92.43
2761;BME280;15420;48.636;9.798;2022-11-20T08:00:05;96161.03;;;8.63;92.26
2761;BME280;15420;48.636;9.798;2022-11-20T08:02:36;96161.09;;;8.66;92.11
2761;BME280;15420;48.636;9.798;2022-11-20T08:05:06;96163.72;;;8.69;92.98
2761;BME280;15420;48.636;9.798;2022-11-20T08:07:39;96160.38;;;8.75;92.49
2761;BME280;15420;48.636;9.798;2022-11-20T08:10:07;96160.44;;;8.78;92.08
2761;BME280;15420;48.636;9.798;2022-11-20T08:12:42;96163.06;;;8.81;91.25
2761;BME280;15420;48.636;9.798;2022-11-20T08:15:27;96165.69;;;8.84;92.33
2761;BME280;15420;48.636;9.798;2022-11-20T08:18:03;96160.66;;;8.90;91.25
2761;BME280;15420;48.636;9.798;2022-11-20T08:20:37;96164.13;;;8.94;90.84
2761;BME280;15420;48.636;9.798;2022-11-20T08:23:07;96160.78;;;8.98;90.84
2761;BME280;15420;48.636;9.798;2022-11-20T08:25:35;96157.38;;;8.99;91.64
2761;BME280;15420;48.636;9.798;2022-11-20T08:28:04;96154.84;;;9.02;91.14
2761;BME280;15420;48.636;9.798;2022-11-20T08:30:31;96160.91;;;9.05;90.77
2761;BME280;15420;48.636;9.798;2022-11-20T08:33:06;96162.69;;;9.09;90.37
2761;BME280;15420;48.636;9.798;2022-11-20T08:35:38;96161.00;;;9.11;90.07
2761;BME280;15420;48.636;9.798;2022-11-20T08:38:10;96163.63;;;9.14;91.05
2761;BME280;15420;48.636;9.798;2022-11-20T08:40:36;96164.53;;;9.18;90.27
2761;BME280;15420;48.636;9.798;2022-11-20T08:43:04;96161.19;;;9.22;90.77
2761;BME280;15420;48.636;9.798;2022-11-20T08:45:30;96167.25;;;9.26;90.13
2761;BME280;15420;48.636;9.798;2022-11-20T08:48:03;96169.00;;;9.28;89.62
2761;BME280;15420;48.636;9.798;2022-11-20T08:50:29;96162.19;;;9.32;89.44
2761;BME280;15420;48.636;9.798;2022-11-20T08:53:03;96166.53;;;9.34;89.05
2761;BME280;15420;48.636;9.798;2022-11-20T08:55:32;96164.81;;;9.35;88.97
2761;BME280;15420;48.636;9.798;2022-11-20T08:57:58;96166.53;;;9.36;89.49
2761;BME280;15420;48.636;9.798;2022-11-20T09:00:29;96169.94;;;9.33;88.80
2761;BME280;15420;48.636;9.798;2022-11-20T09:02:55;96176.81;;;9.36;88.47
2761;BME280;15420;48.636;9.798;2022-11-20T09:05:21;96173.41;;;9.35;88.57
2761;BME280;15420;48.636;9.798;2022-11-20T09:07:47;96175.09;;;9.35;87.45
2761;BME280;15420;48.636;9.798;2022-11-20T09:10:13;96164.78;;;9.33;86.79
2761;BME280;15420;48.636;9.798;2022-11-20T09:12:39;96173.41;;;9.35;86.68
2761;BME280;15420;48.636;9.798;2022-11-20T09:15:06;96171.69;;;9.36;86.58
2761;BME280;15420;48.636;9.798;2022-11-20T09:17:32;96172.53;;;9.38;87.20
2761;BME280;15420;48.636;9.798;2022-11-20T09:20:01;96176.81;;;9.37;87.03
2761;BME280;15420;48.636;9.798;2022-11-20T09:22:27;96170.81;;;9.37;86.37
2761;BME280;15420;48.636;9.798;2022-11-20T09:24:53;96180.25;;;9.38;85.70
2761;BME280;15420;48.636;9.798;2022-11-20T09:27:19;96178.56;;;9.40;85.42
2761;BME280;15420;48.636;9.798;2022-11-20T09:29:48;96167.44;;;9.41;85.20
2761;BME280;15420;48.636;9.798;2022-11-20T09:32:19;96176.09;;;9.46;85.60
2761;BME280;15420;48.636;9.798;2022-11-20T09:34:47;96177.91;;;9.51;85.22
2761;BME280;15420;48.636;9.798;2022-11-20T09:37:13;96178.69;;;9.47;84.77
2761;BME280;15420;48.636;9.798;2022-11-20T09:39:39;96181.25;;;9.47;85.54
2761;BME280;15420;48.636;9.798;2022-11-20T09:45:08;96183.81;;;9.46;84.56
2761;BME280;15420;48.636;9.798;2022-11-20T09:51:09;96183.00;;;9.48;84.65
2761;BME280;15420;48.636;9.798;2022-11-20T09:56:30;96180.44;;;9.50;85.04
2761;BME280;15420;48.636;9.798;2022-11-20T09:59:03;96178.81;;;9.55;85.60
2761;BME280;15420;48.636;9.798;2022-11-20T10:01:36;96192.56;;;9.57;84.86
2761;BME280;15420;48.636;9.798;2022-11-20T10:04:11;96180.59;;;9.59;85.57
2761;BME280;15420;48.636;9.798;2022-11-20T10:09:34;96178.06;;;9.62;84.97
2761;BME280;15420;48.636;9.798;2022-11-20T10:29:18;96173.13;;;9.77;85.96
2761;BME280;15420;48.636;9.798;2022-11-20T10:31:44;96178.28;;;9.77;86.17
2761;BME280;15420;48.636;9.798;2022-11-20T10:37:10;96185.16;;;9.80;85.69
2761;BME280;15420;48.636;9.798;2022-11-20T10:39:58;96196.31;;;9.80;85.55
2761;BME280;15420;48.636;9.798;2022-11-20T10:42:42;96180.03;;;9.80;85.53
2761;BME280;15420;48.636;9.798;2022-11-20T10:50:45;96175.72;;;9.79;86.13
2761;BME280;15420;48.636;9.798;2022-11-20T11:02:46;96173.19;;;9.80;86.75
2761;BME280;15420;48.636;9.798;2022-11-20T11:05:40;96173.16;;;9.79;86.84
2761;BME280;15420;48.636;9.798;2022-11-20T11:08:17;96172.66;;;10.06;86.08
2761;BME280;15420;48.636;9.798;2022-11-20T11:10:54;96169.88;;;9.89;86.96
2761;BME280;15420;48.636;9.798;2022-11-20T11:13:26;96167.22;;;9.84;87.53
2761;BME280;15420;48.636;9.798;2022-11-20T11:15:56;96168.94;;;9.84;88.04
2761;BME280;15420;48.636;9.798;2022-11-20T11:20:54;96166.34;;;9.82;89.13
2761;BME280;15420;48.636;9.798;2022-11-20T11:23:36;96161.19;;;9.82;89.54
2761;BME280;15420;48.636;9.798;2022-11-20T11:26:18;96175.75;;;9.80;89.88
2761;BME280;15420;48.636;9.798;2022-11-20T11:28:54;96179.16;;;9.79;90.39
2761;BME280;15420;48.636;9.798;2022-11-20T11:31:31;96168.00;;;9.77;91.16
2761;BME280;15420;48.636;9.798;2022-11-20T11:34:10;96174.88;;;9.80;91.93
2761;BME280;15420;48.636;9.798;2022-11-20T11:36:37;96174.81;;;9.75;92.40
2761;BME280;15420;48.636;9.798;2022-11-20T11:39:15;96173.09;;;9.76;92.28
2761;BME280;15420;48.636;9.798;2022-11-20T11:41:44;96171.34;;;9.72;93.13
2761;BME280;15420;48.636;9.798;2022-11-20T11:44:33;96165.31;;;9.70;94.33
2761;BME280;15420;48.636;9.798;2022-11-20T11:52:47;96147.06;;;9.53;95.71
2761;BME280;15420;48.636;9.798;2022-11-20T12:00:41;96151.25;;;9.46;97.05
2761;BME280;15420;48.636;9.798;2022-11-20T12:03:27;96143.53;;;9.46;96.46
2761;BME280;15420;48.636;9.798;2022-11-20T12:06:05;96148.69;;;9.46;97.21
2761;BME280;15420;48.636;9.798;2022-11-20T12:09:02;96140.09;;;9.46;96.61
2761;BME280;15420;48.636;9.798;2022-11-20T12:11:37;96137.50;;;9.44;96.67
2761;BME280;15420;48.636;9.798;2022-11-20T12:16:43;96140.16;;;9.49;97.93
2761;BME280;15420;48.636;9.798;2022-11-20T12:19:12;96127.31;;;9.50;96.93
2761;BME280;15420;48.636;9.798;2022-11-20T12:24:55;96130.84;;;9.59;97.40
2761;BME280;15420;48.636;9.798;2022-11-20T12:30:17;96123.16;;;9.60;96.17
2761;BME280;15420;48.636;9.798;2022-11-20T12:40:35;96128.59;;;9.81;96.57
2761;BME280;15420;48.636;9.798;2022-11-20T12:43:29;96128.69;;;9.88;95.40
2761;BME280;15420;48.636;9.798;2022-11-20T13:00:14;96109.47;;;10.28;94.70
2761;BME280;15420;48.636;9.798;2022-11-20T13:07:58;96106.88;;;10.26;94.62
2761;BME280;15420;48.636;9.798;2022-11-20T13:16:22;96098.22;;;10.20;94.68
2761;BME280;15420;48.636;9.798;2022-11-20T13:18:53;96105.03;;;10.19;94.62
2761;BME280;15420;48.636;9.798;2022-11-20T13:21:36;96105.03;;;10.19;94.84
2761;BME280;15420;48.636;9.798;2022-11-20T13:24:20;96107.63;;;10.19;94.28
2761;BME280;15420;48.636;9.798;2022-11-20T13:29:33;96102.44;;;10.16;94.26
2761;BME280;15420;48.636;9.798;2022-11-20T13:32:17;96099.03;;;10.19;93.76
2761;BME280;15420;48.636;9.798;2022-11-20T13:34:53;96099.03;;;10.19;93.40
2761;BME280;15420;48.636;9.798;2022-11-20T13:45:24;96102.44;;;10.16;92.77
2761;BME280;15420;48.636;9.798;2022-11-20T13:47:52;96104.13;;;10.14;92.10
2761;BME280;15420;48.636;9.798;2022-11-20T13:50:25;96120.44;;;10.16;92.23
2761;BME280;15420;48.636;9.798;2022-11-20T14:01:19;96115.31;;;10.18;92.49
2761;BME280;15420;48.636;9.798;2022-11-20T14:03:49;96103.22;;;10.09;91.36
2761;BME280;15420;48.636;9.798;2022-11-20T14:08:53;96094.47;;;9.96;90.48
2761;BME280;15420;48.636;9.798;2022-11-20T14:11:28;96091.84;;;9.92;90.63
2761;BME280;15420;48.636;9.798;2022-11-20T14:16:28;96100.34;;;9.84;89.64
2761;BME280;15420;48.636;9.798;2022-11-20T14:18:55;96086.59;;;9.82;89.22
2761;BME280;15420;48.636;9.798;2022-11-20T14:21:30;96100.31;;;9.83;89.22
2761;BME280;15420;48.636;9.798;2022-11-20T14:24:11;96102.88;;;9.81;89.07
2761;BME280;15420;48.636;9.798;2022-11-20T14:26:42;96086.56;;;9.79;88.85
2761;BME280;15420;48.636;9.798;2022-11-20T14:29:29;96086.56;;;9.81;89.56
2761;BME280;15420;48.636;9.798;2022-11-20T14:32:01;96077.09;;;9.77;88.47
2761;BME280;15420;48.636;9.798;2022-11-20T14:34:30;96083.97;;;9.78;88.28
2761;BME280;15420;48.636;9.798;2022-11-20T14:36:59;96077.94;;;9.77;88.34
2761;BME280;15420;48.636;9.798;2022-11-20T14:39:33;96080.53;;;9.79;87.80
2761;BME280;15420;48.636;9.798;2022-11-20T14:42:00;96065.94;;;9.78;88.19
2761;BME280;15420;48.636;9.798;2022-11-20T14:44:33;96067.69;;;9.79;87.24
2761;BME280;15420;48.636;9.798;2022-11-20T14:47:06;96058.22;;;9.78;86.17
2761;BME280;15420;48.636;9.798;2022-11-20T14:49:33;96060.78;;;9.76;86.35
2761;BME280;15420;48.636;9.798;2022-11-20T14:52:02;96067.66;;;9.77;85.96
2761;BME280;15420;48.636;9.798;2022-11-20T14:54:46;96061.63;;;9.75;85.40
2761;BME280;15420;48.636;9.798;2022-11-20T14:59:51;96071.81;;;9.66;85.74
2761;BME280;15420;48.636;9.798;2022-11-20T15:02:17;96070.88;;;9.61;86.08
2761;BME280;15420;48.636;9.798;2022-11-20T15:04:51;96071.69;;;9.57;85.89
2761;BME280;15420;48.636;9.798;2022-11-20T15:07:28;96076.75;;;9.51;84.97
2761;BME280;15420;48.636;9.798;2022-11-20T15:12:31;96077.44;;;9.39;85.73
2761;BME280;15420;48.636;9.798;2022-11-20T15:14:58;96068.00;;;9.35;85.82
2761;BME280;15420;48.636;9.798;2022-11-20T15:17:26;96064.50;;;9.30;85.43
2761;BME280;15420;48.636;9.798;2022-11-20T15:19:53;96061.84;;;9.26;86.33
2761;BME280;15420;48.636;9.798;2022-11-20T15:22:20;96055.78;;;9.21;86.80
2761;BME280;15420;48.636;9.798;2022-11-20T15:24:49;96054.84;;;9.15;86.60
2761;BME280;15420;48.636;9.798;2022-11-20T15:27:15;96037.66;;;9.11;88.09
2761;BME280;15420;48.636;9.798;2022-11-20T15:29:42;96033.31;;;9.07;87.75
2761;BME280;15420;48.636;9.798;2022-11-20T15:32:11;96040.09;;;9.02;88.44
2761;BME280;15420;48.636;9.798;2022-11-20T15:34:39;96037.44;;;8.96;89.16
2761;BME280;15420;48.636;9.798;2022-11-20T15:37:08;96032.22;;;8.92;89.75
2761;BME280;15420;48.636;9.798;2022-11-20T15:39:34;96033.03;;;8.88;89.77
2761;BME280;15420;48.636;9.798;2022-11-20T15:42:03;96030.38;;;8.83;89.60
2761;BME280;15420;48.636;9.798;2022-11-20T15:44:29;96032.88;;;8.78;89.86
2761;BME280;15420;48.636;9.798;2022-11-20T15:46:55;96037.94;;;8.74;90.07
2761;BME280;15420;48.636;9.798;2022-11-20T15:49:21;96030.16;;;8.68;91.53
2761;BME280;15420;48.636;9.798;2022-11-20T15:51:50;96023.25;;;8.64;91.56
2761;BME280;15420;48.636;9.798;2022-11-20T15:54:21;96020.63;;;8.61;90.74